createdAt,value
2023-03-26T00:00:08.058Z,994.06
2023-03-26T00:01:08.103Z,994.10
2023-03-26T00:02:08.126Z,994.14
2023-03-26T00:03:08.055Z,994.14
2023-03-26T00:04:08.015Z,994.18
2023-03-26T00:05:08.022Z,994.18
2023-03-26T00:06:08.144Z,994.18
2023-03-26T00:07:07.992Z,994.19
2023-03-26T00:08:07.952Z,994.19
2023-03-26T00:09:07.934Z,994.15
2023-03-26T00:10:07.929Z,994.17
2023-03-26T00:11:07.899Z,994.17
2023-03-26T00:12:07.898Z,994.20
2023-03-26T00:13:07.891Z,994.21
2023-03-26T00:14:07.872Z,994.26
2023-03-26T00:15:07.856Z,994.19
2023-03-26T00:16:07.861Z,994.21
2023-03-26T00:17:07.917Z,994.27
2023-03-26T00:18:15.029Z,994.24
2023-03-26T00:19:07.801Z,994.24
2023-03-26T00:20:07.775Z,994.24
2023-03-26T00:21:07.768Z,994.24
2023-03-26T00:22:07.761Z,994.22
2023-03-26T00:23:07.736Z,994.23
2023-03-26T00:24:07.761Z,994.19
2023-03-26T00:25:07.708Z,994.20
2023-03-26T00:26:07.694Z,994.17
2023-03-26T00:27:07.707Z,994.22
2023-03-26T00:28:07.664Z,994.19
2023-03-26T00:29:07.678Z,994.15
2023-03-26T00:30:07.649Z,994.17
2023-03-26T00:31:07.687Z,994.12
2023-03-26T00:32:07.632Z,994.18
2023-03-26T00:33:07.681Z,994.16
2023-03-26T00:34:07.585Z,994.21
2023-03-26T00:35:07.581Z,994.19
2023-03-26T00:36:07.565Z,994.15
2023-03-26T00:37:07.556Z,994.19
2023-03-26T00:38:07.536Z,994.18
2023-03-26T00:39:07.521Z,994.18
2023-03-26T00:40:07.495Z,994.15
2023-03-26T00:41:07.495Z,994.15
2023-03-26T00:42:07.511Z,994.13
2023-03-26T00:43:07.472Z,994.15
2023-03-26T00:44:07.454Z,994.13
2023-03-26T00:45:07.456Z,994.13
2023-03-26T00:46:07.454Z,994.11
2023-03-26T00:47:07.442Z,994.15
2023-03-26T00:48:07.403Z,994.12
2023-03-26T00:49:07.393Z,994.14
2023-03-26T00:50:07.372Z,994.14
2023-03-26T00:51:07.366Z,994.15
2023-03-26T00:52:07.358Z,994.13
2023-03-26T00:53:07.330Z,994.15
2023-03-26T00:54:07.321Z,994.13
2023-03-26T00:55:07.300Z,994.18
2023-03-26T00:56:07.291Z,994.14
2023-03-26T00:57:07.351Z,994.16
2023-03-26T00:58:07.259Z,994.14
2023-03-26T00:59:07.254Z,994.12
2023-03-26T01:00:07.252Z,994.11
2023-03-26T01:01:07.261Z,994.06
2023-03-26T01:02:07.238Z,994.02
2023-03-26T01:03:07.307Z,994.09
2023-03-26T01:04:08.744Z,994.01
2023-03-26T01:05:07.198Z,994.03
2023-03-26T01:06:07.150Z,994.00
2023-03-26T01:07:07.166Z,994.01
2023-03-26T01:08:07.123Z,994.04
2023-03-26T01:09:07.118Z,994.04
2023-03-26T01:10:07.094Z,993.99
2023-03-26T01:11:07.878Z,993.98
2023-03-26T01:12:07.109Z,994.03
2023-03-26T01:13:07.065Z,994.00
2023-03-26T01:14:07.048Z,994.01
2023-03-26T01:15:07.067Z,993.99
2023-03-26T01:16:07.103Z,993.99
2023-03-26T01:17:07.213Z,994.00
2023-03-26T01:18:07.017Z,993.99
2023-03-26T01:19:06.970Z,994.00
2023-03-26T01:20:06.966Z,993.98
2023-03-26T01:21:06.936Z,993.96
2023-03-26T01:22:06.938Z,993.92
2023-03-26T01:23:06.970Z,993.92
2023-03-26T01:24:06.904Z,993.91
2023-03-26T01:25:06.958Z,993.96
2023-03-26T01:26:06.882Z,993.92
2023-03-26T01:27:06.860Z,993.88
2023-03-26T01:28:06.902Z,993.85
2023-03-26T01:29:06.837Z,993.88
2023-03-26T01:30:06.837Z,993.89
2023-03-26T01:31:07.012Z,993.87
2023-03-26T01:32:06.802Z,993.91
2023-03-26T01:33:06.899Z,993.82
2023-03-26T01:34:06.774Z,993.83
2023-03-26T01:35:06.749Z,993.82
2023-03-26T01:36:06.774Z,993.81
2023-03-26T01:37:06.731Z,993.79
2023-03-26T01:38:06.738Z,993.82
2023-03-26T01:39:06.702Z,993.78
2023-03-26T01:40:06.681Z,993.75
2023-03-26T01:41:06.674Z,993.74
2023-03-26T01:42:06.662Z,993.72
2023-03-26T01:43:06.665Z,993.70
2023-03-26T01:44:06.638Z,993.66
2023-03-26T01:45:06.625Z,993.66
2023-03-26T01:46:06.702Z,993.65
2023-03-26T01:47:06.594Z,993.64
2023-03-26T01:48:06.655Z,993.61
2023-03-26T01:49:06.557Z,993.58
2023-03-26T01:50:06.568Z,993.54
2023-03-26T01:51:06.546Z,993.52
2023-03-26T01:52:06.532Z,993.51
2023-03-26T01:53:06.535Z,993.54
2023-03-26T01:54:06.491Z,993.49
2023-03-26T01:55:06.481Z,993.49
2023-03-26T01:56:06.480Z,993.44
2023-03-26T01:57:06.510Z,993.43
2023-03-26T01:58:06.464Z,993.41
2023-03-26T01:59:06.419Z,993.42
2023-03-26T02:00:06.417Z,993.37
2023-03-26T02:01:06.405Z,993.40
2023-03-26T02:02:06.462Z,993.41
2023-03-26T02:03:06.485Z,993.40
2023-03-26T02:04:06.353Z,993.42
2023-03-26T02:05:06.343Z,993.44
2023-03-26T02:06:06.336Z,993.47
2023-03-26T02:07:06.311Z,993.51
2023-03-26T02:08:06.336Z,993.47
2023-03-26T02:09:06.291Z,993.45
2023-03-26T02:10:06.292Z,993.45
2023-03-26T02:11:06.269Z,993.43
2023-03-26T02:12:06.254Z,993.45
2023-03-26T02:13:06.231Z,993.40
2023-03-26T02:14:06.231Z,993.38
2023-03-26T02:15:06.217Z,993.39
2023-03-26T02:16:06.237Z,993.41
2023-03-26T02:17:06.179Z,993.37
2023-03-26T02:18:06.175Z,993.31
2023-03-26T02:19:06.177Z,993.32
2023-03-26T02:20:06.139Z,993.25
2023-03-26T02:21:06.136Z,993.25
2023-03-26T02:22:06.116Z,993.25
2023-03-26T02:23:06.098Z,993.26
2023-03-26T02:24:06.113Z,993.24
2023-03-26T02:25:06.073Z,993.23
2023-03-26T02:26:06.063Z,993.26
2023-03-26T02:27:06.049Z,993.25
2023-03-26T02:28:06.029Z,993.18
2023-03-26T02:29:06.054Z,993.19
2023-03-26T02:30:06.013Z,993.20
2023-03-26T02:31:05.981Z,993.17
2023-03-26T02:32:05.989Z,993.10
2023-03-26T02:33:06.006Z,993.12
2023-03-26T02:34:05.984Z,993.09
2023-03-26T02:35:05.944Z,993.04
2023-03-26T02:36:05.982Z,993.02
2023-03-26T02:37:05.910Z,992.98
2023-03-26T02:38:05.890Z,992.94
2023-03-26T02:39:05.914Z,992.93
2023-03-26T02:40:05.871Z,992.95
2023-03-26T02:41:05.870Z,992.97
2023-03-26T02:42:05.848Z,992.96
2023-03-26T02:43:05.821Z,992.99
2023-03-26T02:44:05.834Z,992.97
2023-03-26T02:45:05.819Z,992.97
2023-03-26T02:46:05.959Z,992.99
2023-03-26T02:47:05.791Z,992.99
2023-03-26T02:48:05.799Z,992.99
2023-03-26T02:49:05.771Z,992.99
2023-03-26T02:50:05.736Z,992.99
2023-03-26T02:51:05.724Z,992.97
2023-03-26T02:52:05.709Z,993.00
2023-03-26T02:53:05.676Z,993.01
2023-03-26T02:54:05.700Z,993.02
2023-03-26T02:55:05.690Z,992.99
2023-03-26T02:56:05.650Z,993.01
2023-03-26T02:57:05.673Z,992.95
2023-03-26T02:58:05.627Z,992.97
2023-03-26T02:59:05.641Z,992.96
2023-03-26T03:00:05.599Z,992.91
2023-03-26T03:01:05.629Z,992.89
2023-03-26T03:02:05.624Z,992.93
2023-03-26T03:03:05.614Z,992.91
2023-03-26T03:04:05.573Z,992.88
2023-03-26T03:05:05.565Z,992.87
2023-03-26T03:06:05.523Z,992.86
2023-03-26T03:07:05.501Z,992.81
2023-03-26T03:08:05.479Z,992.81
2023-03-26T03:09:05.479Z,992.77
2023-03-26T03:10:05.477Z,992.74
2023-03-26T03:11:05.487Z,992.70
2023-03-26T03:12:05.440Z,992.73
2023-03-26T03:13:05.429Z,992.70
2023-03-26T03:14:05.407Z,992.69
2023-03-26T03:15:05.423Z,992.67
2023-03-26T03:16:05.391Z,992.69
2023-03-26T03:17:05.401Z,992.69
2023-03-26T03:18:05.393Z,992.66
2023-03-26T03:19:05.352Z,992.58
2023-03-26T03:20:05.365Z,992.60
2023-03-26T03:21:05.326Z,992.57
2023-03-26T03:22:05.301Z,992.55
2023-03-26T03:23:05.299Z,992.56
2023-03-26T03:24:05.281Z,992.51
2023-03-26T03:25:05.278Z,992.54
2023-03-26T03:26:05.253Z,992.50
2023-03-26T03:27:05.244Z,992.51
2023-03-26T03:28:05.235Z,992.50
2023-03-26T03:29:05.219Z,992.55
2023-03-26T03:30:05.213Z,992.55
2023-03-26T03:31:05.241Z,992.56
2023-03-26T03:32:05.184Z,992.55
2023-03-26T03:33:05.277Z,992.54
2023-03-26T03:34:05.153Z,992.54
2023-03-26T03:35:05.160Z,992.51
2023-03-26T03:36:05.166Z,992.46
2023-03-26T03:37:05.159Z,992.44
2023-03-26T03:38:05.104Z,992.41
2023-03-26T03:39:05.082Z,992.42
2023-03-26T03:40:05.080Z,992.38
2023-03-26T03:41:05.051Z,992.36
2023-03-26T03:42:05.069Z,992.35
2023-03-26T03:43:05.106Z,992.33
2023-03-26T03:44:05.013Z,992.33
2023-03-26T03:45:05.044Z,992.35
2023-03-26T03:46:04.991Z,992.34
2023-03-26T03:47:04.978Z,992.31
2023-03-26T03:48:05.071Z,992.31
2023-03-26T03:49:04.975Z,992.28
2023-03-26T03:50:04.944Z,992.23
2023-03-26T03:51:04.926Z,992.25
2023-03-26T03:52:04.910Z,992.21
2023-03-26T03:53:04.885Z,992.24
2023-03-26T03:54:04.880Z,992.20
2023-03-26T03:55:04.908Z,992.21
2023-03-26T03:56:04.895Z,992.22
2023-03-26T03:57:04.853Z,992.21
2023-03-26T03:58:04.818Z,992.13
2023-03-26T03:59:04.804Z,992.19
2023-03-26T04:00:06.888Z,992.15
2023-03-26T04:01:04.809Z,992.13
2023-03-26T04:02:04.768Z,992.13
2023-03-26T04:03:04.875Z,992.14
2023-03-26T04:04:04.807Z,992.13
2023-03-26T04:05:04.735Z,992.12
2023-03-26T04:06:04.710Z,992.09
2023-03-26T04:07:04.712Z,992.07
2023-03-26T04:08:04.683Z,992.08
2023-03-26T04:09:04.676Z,992.08
2023-03-26T04:10:04.671Z,992.07
2023-03-26T04:11:04.641Z,992.06
2023-03-26T04:12:04.621Z,992.06
2023-03-26T04:13:04.623Z,992.06
2023-03-26T04:14:04.590Z,991.99
2023-03-26T04:15:04.606Z,992.00
2023-03-26T04:16:04.609Z,992.01
2023-03-26T04:17:04.565Z,991.98
2023-03-26T04:18:04.616Z,991.96
2023-03-26T04:19:04.633Z,991.95
2023-03-26T04:20:04.554Z,991.95
2023-03-26T04:21:04.589Z,991.92
2023-03-26T04:22:04.587Z,991.96
2023-03-26T04:23:04.488Z,991.90
2023-03-26T04:24:04.460Z,991.91
2023-03-26T04:25:04.472Z,991.91
2023-03-26T04:26:04.429Z,991.90
2023-03-26T04:27:04.426Z,991.88
2023-03-26T04:28:04.413Z,991.89
2023-03-26T04:29:04.411Z,991.88
2023-03-26T04:30:04.390Z,991.89
2023-03-26T04:31:04.394Z,991.84
2023-03-26T04:32:04.354Z,991.81
2023-03-26T04:33:04.378Z,991.77
2023-03-26T04:34:04.325Z,991.73
2023-03-26T04:35:04.395Z,991.72
2023-03-26T04:36:04.337Z,991.69
2023-03-26T04:37:04.304Z,991.68
2023-03-26T04:38:04.272Z,991.60
2023-03-26T04:39:04.266Z,991.53
2023-03-26T04:40:04.247Z,991.52
2023-03-26T04:41:04.697Z,991.47
2023-03-26T04:42:04.216Z,991.49
2023-03-26T04:43:04.209Z,991.44
2023-03-26T04:44:04.196Z,991.45
2023-03-26T04:45:04.181Z,991.43
2023-03-26T04:46:04.177Z,991.39
2023-03-26T04:47:04.152Z,991.39
2023-03-26T04:48:04.208Z,991.35
2023-03-26T04:49:04.146Z,991.33
2023-03-26T04:50:04.133Z,991.32
2023-03-26T04:51:04.117Z,991.35
2023-03-26T04:52:04.056Z,991.33
2023-03-26T04:53:04.083Z,991.29
2023-03-26T04:54:04.048Z,991.26
2023-03-26T04:55:04.059Z,991.25
2023-03-26T04:56:04.051Z,991.27
2023-03-26T04:57:04.065Z,991.24
2023-03-26T04:58:04.043Z,991.17
2023-03-26T04:59:03.996Z,991.15
2023-03-26T05:00:03.972Z,991.16
2023-03-26T05:01:10.229Z,991.18
2023-03-26T05:02:05.007Z,991.14
2023-03-26T05:03:04.026Z,991.19
2023-03-26T05:04:03.998Z,991.16
2023-03-26T05:05:03.947Z,991.16
2023-03-26T05:06:03.913Z,991.17
2023-03-26T05:07:03.901Z,991.13
2023-03-26T05:08:03.862Z,991.11
2023-03-26T05:09:03.851Z,991.09
2023-03-26T05:10:03.885Z,991.07
2023-03-26T05:11:03.845Z,991.00
2023-03-26T05:12:03.808Z,991.02
2023-03-26T05:13:03.806Z,990.99
2023-03-26T05:14:03.836Z,990.95
2023-03-26T05:15:03.807Z,990.92
2023-03-26T05:16:03.849Z,990.86
2023-03-26T05:17:03.789Z,990.87
2023-03-26T05:18:03.827Z,990.87
2023-03-26T05:19:03.754Z,990.86
2023-03-26T05:20:03.712Z,990.87
2023-03-26T05:21:03.709Z,990.84
2023-03-26T05:22:03.683Z,990.78
2023-03-26T05:23:03.656Z,990.76
2023-03-26T05:24:03.659Z,990.77
2023-03-26T05:25:03.691Z,990.79
2023-03-26T05:26:03.640Z,990.76
2023-03-26T05:27:03.629Z,990.73
2023-03-26T05:28:03.585Z,990.75
2023-03-26T05:29:03.587Z,990.73
2023-03-26T05:30:03.570Z,990.72
2023-03-26T05:31:03.598Z,990.68
2023-03-26T05:32:03.535Z,990.66
2023-03-26T05:33:03.611Z,990.65
2023-03-26T05:34:03.514Z,990.59
2023-03-26T05:35:03.512Z,990.58
2023-03-26T05:36:03.515Z,990.56
2023-03-26T05:37:03.483Z,990.57
2023-03-26T05:38:03.458Z,990.55
2023-03-26T05:39:03.447Z,990.56
2023-03-26T05:40:03.439Z,990.54
2023-03-26T05:41:03.452Z,990.55
2023-03-26T05:42:03.417Z,990.51
2023-03-26T05:43:03.405Z,990.54
2023-03-26T05:44:03.381Z,990.50
2023-03-26T05:45:03.363Z,990.47
2023-03-26T05:46:03.413Z,990.46
2023-03-26T05:47:03.353Z,990.44
2023-03-26T05:48:03.367Z,990.43
2023-03-26T05:49:03.318Z,990.39
2023-03-26T05:50:03.303Z,990.39
2023-03-26T05:51:03.325Z,990.34
2023-03-26T05:52:03.279Z,990.33
2023-03-26T05:53:03.270Z,990.28
2023-03-26T05:54:03.265Z,990.30
2023-03-26T05:55:03.237Z,990.24
2023-03-26T05:56:03.229Z,990.20
2023-03-26T05:57:03.275Z,990.15
2023-03-26T05:58:03.199Z,990.16
2023-03-26T05:59:03.182Z,990.17
2023-03-26T06:00:03.163Z,990.13
2023-03-26T06:01:03.185Z,990.13
2023-03-26T06:02:03.151Z,990.08
2023-03-26T06:03:03.312Z,990.05
2023-03-26T06:04:03.167Z,990.04
2023-03-26T06:05:03.109Z,990.04
2023-03-26T06:06:03.080Z,990.00
2023-03-26T06:07:03.094Z,989.97
2023-03-26T06:08:03.067Z,989.95
2023-03-26T06:09:03.110Z,989.93
2023-03-26T06:10:03.042Z,989.88
2023-03-26T06:11:03.024Z,989.85
2023-03-26T06:12:03.024Z,989.87
2023-03-26T06:13:03.003Z,989.87
2023-03-26T06:14:02.993Z,989.83
2023-03-26T06:15:02.972Z,989.82
2023-03-26T06:16:03.007Z,989.84
2023-03-26T06:17:02.982Z,989.76
2023-03-26T06:18:02.967Z,989.78
2023-03-26T06:19:02.954Z,989.76
2023-03-26T06:20:02.902Z,989.76
2023-03-26T06:21:02.896Z,989.76
2023-03-26T06:22:02.888Z,989.74
2023-03-26T06:23:02.867Z,989.71
2023-03-26T06:24:02.836Z,989.72
2023-03-26T06:25:02.834Z,989.72
2023-03-26T06:26:02.834Z,989.72
2023-03-26T06:27:02.833Z,989.69
2023-03-26T06:28:02.799Z,989.68
2023-03-26T06:29:02.781Z,989.66
2023-03-26T06:30:02.763Z,989.65
2023-03-26T06:31:02.780Z,989.66
2023-03-26T06:32:12.697Z,989.64
2023-03-26T06:33:03.725Z,989.56
2023-03-26T06:34:02.690Z,989.56
2023-03-26T06:35:02.689Z,989.53
2023-03-26T06:36:02.700Z,989.54
2023-03-26T06:37:02.686Z,989.53
2023-03-26T06:38:02.655Z,989.51
2023-03-26T06:39:07.837Z,989.52
2023-03-26T06:40:03.620Z,989.50
2023-03-26T06:41:02.623Z,989.50
2023-03-26T06:42:02.635Z,989.46
2023-03-26T06:43:08.719Z,989.46
2023-03-26T06:44:03.575Z,989.45
2023-03-26T06:45:02.555Z,989.46
2023-03-26T06:46:02.544Z,989.48
2023-03-26T06:47:02.540Z,989.49
2023-03-26T06:48:02.569Z,989.46
2023-03-26T06:49:02.498Z,989.46
2023-03-26T06:50:02.502Z,989.41
2023-03-26T06:51:02.480Z,989.42
2023-03-26T06:52:02.466Z,989.40
2023-03-26T06:53:02.450Z,989.37
2023-03-26T06:54:02.435Z,989.38
2023-03-26T06:55:02.417Z,989.36
2023-03-26T06:56:02.412Z,989.36
2023-03-26T06:57:02.454Z,989.35
2023-03-26T06:58:02.385Z,989.38
2023-03-26T06:59:02.357Z,989.32
2023-03-26T07:00:02.366Z,989.37
2023-03-26T07:01:02.384Z,989.33
2023-03-26T07:02:02.362Z,989.31
2023-03-26T07:03:02.349Z,989.34
2023-03-26T07:04:02.325Z,989.37
2023-03-26T07:05:02.283Z,989.41
2023-03-26T07:06:02.311Z,989.44
2023-03-26T07:07:02.266Z,989.38
2023-03-26T07:08:02.273Z,989.38
2023-03-26T07:09:02.232Z,989.38
2023-03-26T07:10:02.231Z,989.35
2023-03-26T07:11:02.233Z,989.31
2023-03-26T07:12:02.207Z,989.35
2023-03-26T07:13:02.225Z,989.29
2023-03-26T07:14:02.176Z,989.28
2023-03-26T07:15:02.171Z,989.31
2023-03-26T07:16:02.153Z,989.33
2023-03-26T07:17:02.153Z,989.30
2023-03-26T07:18:02.157Z,989.27
2023-03-26T07:19:02.104Z,989.23
2023-03-26T07:20:02.178Z,989.24
2023-03-26T07:21:02.059Z,989.22
2023-03-26T07:22:02.065Z,989.20
2023-03-26T07:23:02.051Z,989.19
2023-03-26T07:24:02.036Z,989.19
2023-03-26T07:25:02.022Z,989.16
2023-03-26T07:26:02.009Z,989.19
2023-03-26T07:27:01.983Z,989.18
2023-03-26T07:28:02.003Z,989.12
2023-03-26T07:29:04.701Z,989.11
2023-03-26T07:30:01.949Z,989.09
2023-03-26T07:31:01.939Z,989.08
2023-03-26T07:32:02.004Z,989.09
2023-03-26T07:33:01.936Z,989.11
2023-03-26T07:34:01.893Z,989.03
2023-03-26T07:35:02.133Z,989.04
2023-03-26T07:36:01.880Z,989.01
2023-03-26T07:37:01.842Z,988.95
2023-03-26T07:38:01.877Z,988.96
2023-03-26T07:39:01.818Z,988.98
2023-03-26T07:40:01.808Z,988.96
2023-03-26T07:41:01.821Z,988.97
2023-03-26T07:42:01.804Z,988.95
2023-03-26T07:43:01.808Z,988.96
2023-03-26T07:44:01.756Z,988.90
2023-03-26T07:45:01.745Z,988.92
2023-03-26T07:46:01.744Z,988.91
2023-03-26T07:47:01.711Z,988.90
2023-03-26T07:48:01.741Z,988.91
2023-03-26T07:49:01.715Z,988.91
2023-03-26T07:50:01.688Z,988.92
2023-03-26T07:51:01.672Z,988.92
2023-03-26T07:52:01.654Z,988.93
2023-03-26T07:53:01.642Z,988.94
2023-03-26T07:54:01.617Z,988.95
2023-03-26T07:55:01.620Z,988.92
2023-03-26T07:56:01.664Z,988.94
2023-03-26T07:57:02.191Z,988.92
2023-03-26T07:58:01.569Z,988.91
2023-03-26T07:59:01.537Z,988.89
2023-03-26T08:00:01.534Z,988.87
2023-03-26T08:01:01.521Z,988.86
2023-03-26T08:02:01.515Z,988.86
2023-03-26T08:03:01.676Z,988.83
2023-03-26T08:04:23.747Z,988.82
2023-03-26T08:05:02.610Z,988.80
2023-03-26T08:06:01.463Z,988.81
2023-03-26T08:07:01.436Z,988.76
2023-03-26T08:08:01.421Z,988.76
2023-03-26T08:09:01.418Z,988.72
2023-03-26T08:10:01.395Z,988.74
2023-03-26T08:11:01.387Z,988.72
2023-03-26T08:12:01.386Z,988.70
2023-03-26T08:13:01.352Z,988.69
2023-03-26T08:14:01.375Z,988.63
2023-03-26T08:15:01.325Z,988.65
2023-03-26T08:16:01.388Z,988.63
2023-03-26T08:17:01.304Z,988.63
2023-03-26T08:18:01.321Z,988.60
2023-03-26T08:19:01.288Z,988.57
2023-03-26T08:20:01.266Z,988.55
2023-03-26T08:21:01.258Z,988.53
2023-03-26T08:22:01.239Z,988.57
2023-03-26T08:23:01.205Z,988.55
2023-03-26T08:24:01.220Z,988.59
2023-03-26T08:25:01.252Z,988.55
2023-03-26T08:26:01.189Z,988.61
2023-03-26T08:27:01.163Z,988.58
2023-03-26T08:28:01.154Z,988.57
2023-03-26T08:29:01.162Z,988.56
2023-03-26T08:30:01.117Z,988.59
2023-03-26T08:31:01.148Z,988.53
2023-03-26T08:32:01.103Z,988.53
2023-03-26T08:33:01.096Z,988.52
2023-03-26T08:34:01.082Z,988.51
2023-03-26T08:35:01.043Z,988.48
2023-03-26T08:36:01.073Z,988.46
2023-03-26T08:37:01.012Z,988.47
2023-03-26T08:38:01.022Z,988.48
2023-03-26T08:39:01.086Z,988.43
2023-03-26T08:40:00.985Z,988.43
2023-03-26T08:41:00.973Z,988.39
2023-03-26T08:42:00.953Z,988.39
2023-03-26T08:43:00.934Z,988.36
2023-03-26T08:44:00.939Z,988.36
2023-03-26T08:45:00.919Z,988.35
2023-03-26T08:46:00.901Z,988.26
2023-03-26T08:47:00.874Z,988.29
2023-03-26T08:48:00.891Z,988.30
2023-03-26T08:49:00.845Z,988.25
2023-03-26T08:50:00.834Z,988.27
2023-03-26T08:51:00.857Z,988.23
2023-03-26T08:52:00.825Z,988.24
2023-03-26T08:53:00.795Z,988.22
2023-03-26T08:54:00.820Z,988.21
2023-03-26T08:55:00.769Z,988.23
2023-03-26T08:56:00.755Z,988.23
2023-03-26T08:57:00.816Z,988.22
2023-03-26T08:58:00.747Z,988.20
2023-03-26T08:59:00.727Z,988.15
2023-03-26T09:00:02.479Z,988.19
2023-03-26T09:01:00.691Z,988.16
2023-03-26T09:02:00.757Z,988.19
2023-03-26T09:03:00.726Z,988.16
2023-03-26T09:04:00.685Z,988.16
2023-03-26T09:05:00.634Z,988.22
2023-03-26T09:06:00.640Z,988.22
2023-03-26T09:07:00.621Z,988.18
2023-03-26T09:08:00.601Z,988.17
2023-03-26T09:09:00.607Z,988.21
2023-03-26T09:10:00.567Z,988.19
2023-03-26T09:11:00.555Z,988.21
2023-03-26T09:12:00.553Z,988.22
2023-03-26T09:13:00.514Z,988.18
2023-03-26T09:14:00.533Z,988.22
2023-03-26T09:15:00.499Z,988.22
2023-03-26T09:16:00.522Z,988.16
2023-03-26T09:17:00.468Z,988.18
2023-03-26T09:18:00.519Z,988.13
2023-03-26T09:19:00.445Z,988.10
2023-03-26T09:20:00.459Z,988.13
2023-03-26T09:21:00.422Z,988.11
2023-03-26T09:22:00.417Z,988.10
2023-03-26T09:23:00.394Z,988.05
2023-03-26T09:24:00.377Z,988.04
2023-03-26T09:25:00.385Z,988.03
2023-03-26T09:26:00.359Z,988.02
2023-03-26T09:27:00.342Z,987.98
2023-03-26T09:28:00.318Z,988.02
2023-03-26T09:29:00.315Z,987.97
2023-03-26T09:30:00.326Z,987.96
2023-03-26T09:31:00.296Z,987.95
2023-03-26T09:32:00.275Z,987.95
2023-03-26T09:33:00.286Z,987.96
2023-03-26T09:34:00.451Z,987.95
2023-03-26T09:35:00.265Z,987.95
2023-03-26T09:36:00.254Z,987.93
2023-03-26T09:37:00.210Z,987.92
2023-03-26T09:38:00.197Z,987.90
2023-03-26T09:39:00.188Z,987.91
2023-03-26T09:40:00.187Z,987.84
2023-03-26T09:41:00.209Z,987.86
2023-03-26T09:42:00.137Z,987.81
2023-03-26T09:43:00.124Z,987.78
2023-03-26T09:44:00.110Z,987.76
2023-03-26T09:45:00.135Z,987.73
2023-03-26T09:46:00.148Z,987.69
2023-03-26T09:47:00.107Z,987.72
2023-03-26T09:48:00.170Z,987.74
2023-03-26T09:49:00.054Z,987.75
2023-03-26T09:50:00.048Z,987.75
2023-03-26T09:51:00.047Z,987.70
2023-03-26T09:51:59.997Z,987.68
2023-03-26T09:52:59.981Z,987.67
2023-03-26T09:53:59.973Z,987.64
2023-03-26T09:54:59.969Z,987.61
2023-03-26T09:55:59.937Z,987.59
2023-03-26T09:56:59.965Z,987.61
2023-03-26T09:57:59.965Z,987.62
2023-03-26T09:58:59.899Z,987.62
2023-03-26T09:59:59.899Z,987.61
2023-03-26T10:00:59.914Z,987.59
2023-03-26T10:01:59.854Z,987.54
2023-03-26T10:02:59.856Z,987.53
2023-03-26T10:03:59.824Z,987.54
2023-03-26T10:04:59.910Z,987.54
2023-03-26T10:05:59.815Z,987.52
2023-03-26T10:06:59.779Z,987.46
2023-03-26T10:07:59.777Z,987.48
2023-03-26T10:08:59.764Z,987.51
2023-03-26T10:09:59.739Z,987.51
2023-03-26T10:10:59.752Z,987.52
2023-03-26T10:11:59.719Z,987.49
2023-03-26T10:13:08.347Z,987.48
2023-03-26T10:14:00.693Z,987.46
2023-03-26T10:14:59.678Z,987.42
2023-03-26T10:15:59.690Z,987.42
2023-03-26T10:16:59.694Z,987.40
2023-03-26T10:17:59.672Z,987.41
2023-03-26T10:18:59.620Z,987.40
2023-03-26T10:19:59.621Z,987.40
2023-03-26T10:20:59.608Z,987.37
2023-03-26T10:21:59.588Z,987.38
2023-03-26T10:22:59.561Z,987.34
2023-03-26T10:23:59.568Z,987.32
2023-03-26T10:24:59.557Z,987.33
2023-03-26T10:25:59.556Z,987.34
2023-03-26T10:27:09.285Z,987.31
2023-03-26T10:28:00.490Z,987.34
2023-03-26T10:28:59.498Z,987.27
2023-03-26T10:29:59.469Z,987.28
2023-03-26T10:30:59.669Z,987.27
2023-03-26T10:31:59.455Z,987.25
2023-03-26T10:32:59.457Z,987.24
2023-03-26T10:33:59.454Z,987.25
2023-03-26T10:34:59.399Z,987.20
2023-03-26T10:35:59.442Z,987.25
2023-03-26T10:36:59.369Z,987.21
2023-03-26T10:37:59.464Z,987.21
2023-03-26T10:38:59.337Z,987.21
2023-03-26T10:39:59.331Z,987.20
2023-03-26T10:40:59.322Z,987.20
2023-03-26T10:41:59.328Z,987.21
2023-03-26T10:42:59.297Z,987.28
2023-03-26T10:44:07.879Z,987.27
2023-03-26T10:45:00.254Z,987.30
2023-03-26T10:45:59.313Z,987.30
2023-03-26T10:46:59.248Z,987.32
2023-03-26T10:47:59.246Z,987.28
2023-03-26T10:48:59.191Z,987.26
2023-03-26T10:49:59.183Z,987.28
2023-03-26T10:50:59.175Z,987.23
2023-03-26T10:51:59.181Z,987.17
2023-03-26T10:52:59.156Z,987.16
2023-03-26T10:53:59.165Z,987.16
2023-03-26T10:54:59.120Z,987.06
2023-03-26T10:55:59.117Z,987.12
2023-03-26T10:56:59.130Z,987.15
2023-03-26T10:57:59.075Z,987.13
2023-03-26T10:58:59.075Z,987.10
2023-03-26T10:59:59.046Z,987.07
2023-03-26T11:00:59.050Z,987.13
2023-03-26T11:01:59.052Z,987.10
2023-03-26T11:02:59.060Z,987.03
2023-03-26T11:03:58.988Z,987.05
2023-03-26T11:04:58.990Z,987.06
2023-03-26T11:05:59.003Z,987.02
2023-03-26T11:06:58.996Z,986.97
2023-03-26T11:07:58.940Z,986.99
2023-03-26T11:08:58.918Z,986.96
2023-03-26T11:09:58.911Z,986.99
2023-03-26T11:10:58.901Z,986.97
2023-03-26T11:11:58.903Z,987.00
2023-03-26T11:12:58.909Z,986.97
2023-03-26T11:13:58.862Z,986.99
2023-03-26T11:14:58.866Z,986.97
2023-03-26T11:15:58.851Z,986.99
2023-03-26T11:16:58.842Z,987.00
2023-03-26T11:17:58.874Z,986.98
2023-03-26T11:18:58.826Z,986.92
2023-03-26T11:19:58.778Z,986.88
2023-03-26T11:21:18.653Z,986.89
2023-03-26T11:21:59.772Z,986.86
2023-03-26T11:22:58.737Z,986.89
2023-03-26T11:24:04.756Z,986.83
2023-03-26T11:24:59.770Z,986.84
2023-03-26T11:25:58.699Z,986.83
2023-03-26T11:27:15.657Z,986.79
2023-03-26T11:27:59.654Z,986.77
2023-03-26T11:29:03.768Z,986.73
2023-03-26T11:29:59.644Z,986.76
2023-03-26T11:30:59.031Z,986.74
2023-03-26T11:31:58.646Z,986.73
2023-03-26T11:32:58.661Z,986.71
2023-03-26T11:33:58.593Z,986.74
2023-03-26T11:34:58.590Z,986.66
2023-03-26T11:35:58.567Z,986.67
2023-03-26T11:36:58.592Z,986.64
2023-03-26T11:37:58.552Z,986.66
2023-03-26T11:38:58.528Z,986.65
2023-03-26T11:39:58.506Z,986.62
2023-03-26T11:40:58.801Z,986.59
2023-03-26T11:41:58.481Z,986.63
2023-03-26T11:42:58.492Z,986.61
2023-03-26T11:43:58.447Z,986.57
2023-03-26T11:44:58.457Z,986.56
2023-03-26T11:45:58.441Z,986.57
2023-03-26T11:46:58.460Z,986.57
2023-03-26T11:47:58.468Z,986.55
2023-03-26T11:48:58.390Z,986.56
2023-03-26T11:49:58.358Z,986.55
2023-03-26T11:50:58.363Z,986.53
2023-03-26T11:51:58.356Z,986.52
2023-03-26T11:52:58.353Z,986.54
2023-03-26T11:53:58.315Z,986.51
2023-03-26T11:54:58.314Z,986.50
2023-03-26T11:55:58.279Z,986.48
2023-03-26T11:57:05.710Z,986.46
2023-03-26T11:57:59.261Z,986.42
2023-03-26T11:58:58.257Z,986.40
2023-03-26T11:59:58.328Z,986.45
2023-03-26T12:00:58.220Z,986.44
2023-03-26T12:01:58.282Z,986.43
2023-03-26T12:02:58.233Z,986.46
2023-03-26T12:03:58.254Z,986.43
2023-03-26T12:04:58.192Z,986.41
2023-03-26T12:05:58.136Z,986.37
2023-03-26T12:06:58.136Z,986.33
2023-03-26T12:07:58.175Z,986.31
2023-03-26T12:08:58.180Z,986.32
2023-03-26T12:09:58.106Z,986.33
2023-03-26T12:10:59.072Z,986.30
2023-03-26T12:11:58.132Z,986.27
2023-03-26T12:12:58.065Z,986.26
2023-03-26T12:13:58.041Z,986.28
2023-03-26T12:14:58.036Z,986.23
2023-03-26T12:15:58.070Z,986.23
2023-03-26T12:16:58.004Z,986.18
2023-03-26T12:17:58.051Z,986.20
2023-03-26T12:18:57.958Z,986.15
2023-03-26T12:19:57.955Z,986.14
2023-03-26T12:20:58.034Z,986.09
2023-03-26T12:21:57.923Z,986.10
2023-03-26T12:22:57.939Z,986.09
2023-03-26T12:23:57.883Z,986.11
2023-03-26T12:24:57.900Z,986.12
2023-03-26T12:25:57.951Z,986.11
2023-03-26T12:26:57.861Z,986.11
2023-03-26T12:27:57.874Z,986.09